Terminal Aerodrome Forecast
Issued by NWS

Home | Current Version | Previous Version | Text Only | Print | Product List | Glossary On
Versions: 1 2 3 4 5 6 7 8 9 10 11 12 13 14 15 16
000
FTAK31 PAJN 301130
TAFAJN
TAF
PAJN 301130Z 3012/0112 09010KT P6SM -RA SCT015 BKN035 OVC060
     FM301500 11010G20KT P6SM -RA SCT025 OVC040
     FM302100 10020G35KT 5SM RA BR BKN020 OVC030 WS020/15045KT
     FM010400 10015G25KT P6SM -SHRA BKN035 OVC050=

USA.gov is the U.S. government's official web portal to all federal, state and local government web resources and services.